createdAt,value
2022-10-23T00:01:16.428Z,101058.41
2022-10-23T00:03:43.614Z,101053.75
2022-10-23T00:06:11.178Z,101046.09
2022-10-23T00:08:38.366Z,101050.09
2022-10-23T00:11:09.879Z,101042.72
2022-10-23T00:13:36.605Z,101047.38
2022-10-23T00:16:03.495Z,101045.72
2022-10-23T00:18:30.158Z,101041.97
2022-10-23T00:20:56.775Z,101042.09
2022-10-23T00:23:23.556Z,101036.19
2022-10-23T00:25:50.015Z,101038.78
2022-10-23T00:28:16.466Z,101040.78
2022-10-23T00:30:42.876Z,101039.25
2022-10-23T00:33:10.330Z,101038.69
2022-10-23T00:35:40.961Z,101036.19
2022-10-23T00:38:08.671Z,101032.28
2022-10-23T00:40:35.769Z,101035.38
2022-10-23T00:43:02.652Z,101035.84
2022-10-23T00:45:33.370Z,101038.28
2022-10-23T00:48:01.888Z,101041.41
2022-10-23T00:50:31.283Z,101040.28
2022-10-23T00:53:00.922Z,101033.28
2022-10-23T00:55:28.993Z,101033.63
2022-10-23T00:57:55.644Z,101030.66
2022-10-23T01:00:27.493Z,101024.31
2022-10-23T01:02:55.238Z,101017.84
2022-10-23T01:05:27.578Z,101012.91
2022-10-23T01:08:02.839Z,101013.50
2022-10-23T01:10:39.566Z,101014.38
2022-10-23T01:13:12.698Z,101018.91
2022-10-23T01:15:52.178Z,101014.94
2022-10-23T01:18:28.258Z,101012.03
2022-10-23T01:21:04.493Z,101017.03
2022-10-23T01:23:52.420Z,101022.97
2022-10-23T01:26:18.745Z,101024.81
2022-10-23T01:28:50.120Z,101016.78
2022-10-23T01:31:23.063Z,101013.63
2022-10-23T01:33:56.737Z,101011.44
2022-10-23T01:36:28.163Z,101005.44
2022-10-23T01:39:07.507Z,101007.34
2022-10-23T01:41:48.589Z,101001.22
2022-10-23T01:44:30.984Z,100984.59
2022-10-23T01:46:58.206Z,100974.88
2022-10-23T01:49:25.045Z,100978.94
2022-10-23T01:51:56.618Z,100963.66
2022-10-23T01:54:33.782Z,100971.22
2022-10-23T01:57:02.360Z,100961.66
2022-10-23T01:59:35.197Z,100971.22
2022-10-23T02:02:03.332Z,100974.66
2022-10-23T02:04:35.743Z,100963.88
2022-10-23T02:07:02.459Z,100959.84
2022-10-23T02:09:28.858Z,100963.75
2022-10-23T02:12:02.535Z,100957.25
2022-10-23T02:14:58.062Z,100954.59
2022-10-23T02:17:42.016Z,100959.47
2022-10-23T02:20:16.943Z,100953.59
2022-10-23T02:22:55.085Z,100942.19
2022-10-23T02:25:33.402Z,100946.44
2022-10-23T02:28:04.984Z,100934.66
2022-10-23T02:30:32.797Z,100939.13
2022-10-23T02:33:01.382Z,100929.16
2022-10-23T02:35:27.893Z,100922.66
2022-10-23T02:37:56.373Z,100915.91
2022-10-23T02:40:26.544Z,100922.06
2022-10-23T02:43:01.606Z,100908.59
2022-10-23T02:45:35.955Z,100907.63
2022-10-23T02:48:13.606Z,100907.81
2022-10-23T02:51:03.780Z,100906.38
2022-10-23T02:53:49.210Z,100902.50
2022-10-23T02:56:41.601Z,100909.25
2022-10-23T02:59:17.220Z,100901.28
2022-10-23T03:01:48.588Z,100902.13
2022-10-23T03:04:17.612Z,100906.19
2022-10-23T03:06:44.630Z,100905.78
2022-10-23T03:09:12.103Z,100900.06
2022-10-23T03:11:38.535Z,100892.53
2022-10-23T03:14:05.026Z,100893.94
2022-10-23T03:16:31.398Z,100892.34
2022-10-23T03:18:57.964Z,100884.16
2022-10-23T03:21:24.545Z,100881.91
2022-10-23T03:23:50.941Z,100889.47
2022-10-23T03:26:17.436Z,100865.22
2022-10-23T03:28:43.810Z,100867.06
2022-10-23T03:31:10.323Z,100855.44
2022-10-23T03:33:36.778Z,100865.00
2022-10-23T03:36:03.487Z,100857.66
2022-10-23T03:38:29.898Z,100845.84
2022-10-23T03:40:56.303Z,100843.59
2022-10-23T03:43:22.683Z,100847.47
2022-10-23T03:45:49.134Z,100841.59
2022-10-23T03:48:15.597Z,100843.44
2022-10-23T03:50:41.980Z,100850.34
2022-10-23T03:53:08.383Z,100857.91
2022-10-23T03:55:34.800Z,100847.47
2022-10-23T03:58:01.242Z,100860.09
2022-10-23T04:00:27.808Z,100856.03
2022-10-23T04:02:54.186Z,100860.06
2022-10-23T04:05:20.605Z,100864.56
2022-10-23T04:07:47.014Z,100862.56
2022-10-23T04:10:13.392Z,100862.59
2022-10-23T04:12:39.918Z,100854.03
2022-10-23T04:15:06.805Z,100854.84
2022-10-23T04:17:33.236Z,100863.19
2022-10-23T04:19:59.628Z,100855.66
2022-10-23T04:22:28.343Z,100845.47
2022-10-23T04:24:55.788Z,100846.50
2022-10-23T04:27:22.855Z,100852.63
2022-10-23T04:29:49.318Z,100849.97
2022-10-23T04:32:16.018Z,100847.31
2022-10-23T04:34:42.433Z,100852.00
2022-10-23T04:37:08.831Z,100845.28
2022-10-23T04:39:35.350Z,100838.78
2022-10-23T04:42:01.833Z,100828.38
2022-10-23T04:44:28.267Z,100834.09
2022-10-23T04:46:54.751Z,100830.63
2022-10-23T04:49:21.287Z,100824.72
2022-10-23T04:51:47.721Z,100817.78
2022-10-23T04:54:14.144Z,100829.41
2022-10-23T04:56:40.738Z,100824.28
2022-10-23T04:59:07.152Z,100827.16
2022-10-23T05:01:33.699Z,100820.25
2022-10-23T05:04:00.251Z,100816.34
2022-10-23T05:06:26.608Z,100805.97
2022-10-23T05:08:53.056Z,100806.38
2022-10-23T05:11:19.482Z,100804.13
2022-10-23T05:13:45.873Z,100799.84
2022-10-23T05:16:26.941Z,100810.88
2022-10-23T05:18:53.418Z,100807.59
2022-10-23T05:21:26.374Z,100805.97
2022-10-23T05:23:53.903Z,100806.19
2022-10-23T05:26:22.261Z,100799.44
2022-10-23T05:28:49.164Z,100792.50
2022-10-23T05:31:16.181Z,100782.94
2022-10-23T05:33:42.621Z,100786.22
2022-10-23T05:36:09.710Z,100778.28
2022-10-23T05:38:36.229Z,100772.97
2022-10-23T05:41:03.176Z,100773.97
2022-10-23T05:43:31.169Z,100774.19
2022-10-23T05:45:58.452Z,100771.75
2022-10-23T05:48:34.340Z,100772.56
2022-10-23T05:51:09.671Z,100759.72
2022-10-23T05:53:38.856Z,100763.81
2022-10-23T05:56:09.254Z,100769.31
2022-10-23T05:58:35.860Z,100762.78
2022-10-23T06:01:10.267Z,100764.22
2022-10-23T06:03:38.180Z,100758.31
2022-10-23T06:06:05.743Z,100754.22
2022-10-23T06:08:32.934Z,100733.25
2022-10-23T06:11:05.512Z,100741.41
2022-10-23T06:13:31.892Z,100739.38
2022-10-23T06:15:58.385Z,100744.66
2022-10-23T06:18:24.826Z,100743.84
2022-10-23T06:20:51.241Z,100742.84
2022-10-23T06:23:17.609Z,100745.66
2022-10-23T06:25:50.854Z,100736.28
2022-10-23T06:28:20.515Z,100745.28
2022-10-23T06:30:47.314Z,100735.91
2022-10-23T06:33:13.786Z,100734.47
2022-10-23T06:35:40.334Z,100731.19
2022-10-23T06:38:06.739Z,100730.19
2022-10-23T06:40:33.197Z,100728.94
2022-10-23T06:42:59.678Z,100732.63
2022-10-23T06:45:26.110Z,100733.44
2022-10-23T06:47:52.848Z,100732.00
2022-10-23T06:50:19.248Z,100730.13
2022-10-23T06:52:47.439Z,100726.25
2022-10-23T06:55:14.242Z,100719.94
2022-10-23T06:57:40.952Z,100721.16
2022-10-23T07:00:08.230Z,100712.81
2022-10-23T07:02:34.669Z,100715.84
2022-10-23T07:05:01.054Z,100715.44
2022-10-23T07:07:30.096Z,100706.88
2022-10-23T07:09:56.605Z,100707.28
2022-10-23T07:12:26.290Z,100712.97
2022-10-23T07:14:52.725Z,100716.22
2022-10-23T07:17:19.140Z,100711.50
2022-10-23T07:19:47.122Z,100710.09
2022-10-23T07:22:15.841Z,100713.94
2022-10-23T07:24:42.672Z,100708.41
2022-10-23T07:27:09.231Z,100718.16
2022-10-23T07:29:35.681Z,100721.34
2022-10-23T07:32:02.334Z,100721.34
2022-10-23T07:34:30.887Z,100717.63
2022-10-23T07:36:57.606Z,100715.38
2022-10-23T07:39:24.116Z,100712.63
2022-10-23T07:41:50.609Z,100702.03
2022-10-23T07:44:18.271Z,100697.88
2022-10-23T07:46:44.614Z,100702.47
2022-10-23T07:49:11.304Z,100700.38
2022-10-23T07:51:37.680Z,100702.16
2022-10-23T07:54:04.148Z,100701.81
2022-10-23T07:56:33.544Z,100696.16
2022-10-23T07:58:59.967Z,100685.78
2022-10-23T08:01:32.372Z,100693.31
2022-10-23T08:03:59.765Z,100685.75
2022-10-23T08:06:26.272Z,100678.22
2022-10-23T08:08:52.867Z,100679.84
2022-10-23T08:11:27.019Z,100680.75
2022-10-23T08:13:55.328Z,100677.69
2022-10-23T08:16:25.771Z,100683.63
2022-10-23T08:18:52.387Z,100669.28
2022-10-23T08:21:19.175Z,100677.38
2022-10-23T08:23:45.831Z,100680.66
2022-10-23T08:26:14.121Z,100678.00
2022-10-23T08:28:40.666Z,100680.09
2022-10-23T08:31:09.494Z,100684.84
2022-10-23T08:33:36.606Z,100681.22
2022-10-23T08:36:03.482Z,100684.03
2022-10-23T08:38:29.948Z,100687.41
2022-10-23T08:40:56.343Z,100687.00
2022-10-23T08:43:41.562Z,100685.16
2022-10-23T08:46:17.583Z,100680.66
2022-10-23T08:49:26.883Z,100681.03
2022-10-23T08:51:56.366Z,100674.19
2022-10-23T08:54:44.401Z,100675.72
2022-10-23T08:57:17.249Z,100669.16
2022-10-23T08:59:50.544Z,100667.31
2022-10-23T09:02:21.186Z,100672.69
2022-10-23T09:04:50.413Z,100669.75
2022-10-23T09:07:35.168Z,100667.94
2022-10-23T09:10:16.530Z,100644.19
2022-10-23T09:12:43.091Z,100648.13
2022-10-23T09:15:31.587Z,100644.47
2022-10-23T09:18:00.733Z,100635.84
2022-10-23T09:20:28.847Z,100638.13
2022-10-23T09:22:59.043Z,100622.97
2022-10-23T09:25:31.360Z,100611.09
2022-10-23T09:28:01.504Z,100605.25
2022-10-23T09:30:41.135Z,100605.06
2022-10-23T09:33:29.397Z,100616.63
2022-10-23T09:36:00.975Z,100597.06
2022-10-23T09:38:37.892Z,100594.97
2022-10-23T09:41:21.428Z,100601.72
2022-10-23T09:43:59.176Z,100596.94
2022-10-23T09:46:28.298Z,100583.47
2022-10-23T09:49:00.894Z,100587.84
2022-10-23T09:51:30.222Z,100585.09
2022-10-23T09:54:00.765Z,100583.25
2022-10-23T09:56:34.838Z,100580.66
2022-10-23T09:59:31.154Z,100579.63
2022-10-23T10:02:00.545Z,100567.69
2022-10-23T10:04:35.826Z,100568.88
2022-10-23T10:07:04.661Z,100564.94
2022-10-23T10:09:31.211Z,100550.63
2022-10-23T10:12:14.435Z,100557.03
2022-10-23T10:15:02.796Z,100562.38
2022-10-23T10:17:36.515Z,100562.78
2022-10-23T10:20:18.313Z,100550.88
2022-10-23T10:22:57.128Z,100551.19
2022-10-23T10:25:53.465Z,100561.50
2022-10-23T10:28:43.766Z,100557.81
2022-10-23T10:31:23.506Z,100562.13
2022-10-23T10:34:02.708Z,100554.75
2022-10-23T10:36:53.672Z,100555.81
2022-10-23T10:39:41.438Z,100549.50
2022-10-23T10:42:44.882Z,100531.16
2022-10-23T10:45:24.404Z,100536.88
2022-10-23T10:48:09.502Z,100531.31
2022-10-23T10:50:42.582Z,100518.72
2022-10-23T10:53:19.932Z,100502.69
2022-10-23T10:55:51.378Z,100498.88
2022-10-23T10:58:41.924Z,100492.09
2022-10-23T11:01:27.114Z,100482.06
2022-10-23T11:04:01.724Z,100487.94
2022-10-23T11:06:35.220Z,100476.09
2022-10-23T11:09:20.361Z,100474.72
2022-10-23T11:11:48.754Z,100471.09
2022-10-23T11:14:17.746Z,100474.38
2022-10-23T11:16:51.504Z,100459.09
2022-10-23T11:19:26.573Z,100464.22
2022-10-23T11:22:09.918Z,100463.81
2022-10-23T11:24:45.325Z,100465.19
2022-10-23T11:27:39.650Z,100454.75
2022-10-23T11:30:22.486Z,100456.81
2022-10-23T11:33:05.629Z,100443.41
2022-10-23T11:35:50.760Z,100439.03
2022-10-23T11:38:17.082Z,100419.09
2022-10-23T11:43:31.715Z,100439.66
2022-10-23T11:45:58.479Z,100432.50
2022-10-23T11:48:43.195Z,100447.25
2022-10-23T11:51:34.379Z,100432.41
2022-10-23T11:54:24.276Z,100432.25
2022-10-23T11:57:02.989Z,100418.78
2022-10-23T11:59:34.598Z,100415.03
2022-10-23T12:02:10.834Z,100416.34
2022-10-23T12:04:48.852Z,100413.03
2022-10-23T12:07:31.096Z,100413.09
2022-10-23T12:10:24.196Z,100413.31
2022-10-23T12:13:00.199Z,100408.53
2022-10-23T12:15:28.025Z,100417.81
2022-10-23T12:18:08.958Z,100394.44
2022-10-23T12:20:44.808Z,100387.03
2022-10-23T12:23:50.580Z,100380.44
2022-10-23T12:26:17.266Z,100385.06
2022-10-23T12:29:32.332Z,100376.44
2022-10-23T12:32:17.725Z,100381.44
2022-10-23T12:35:09.605Z,100378.63
2022-10-23T12:37:55.193Z,100377.06
2022-10-23T12:40:22.987Z,100361.22
2022-10-23T12:42:56.698Z,100365.56
2022-10-23T12:45:29.621Z,100360.56
2022-10-23T12:47:56.633Z,100343.00
2022-10-23T12:50:26.789Z,100355.63
2022-10-23T12:52:57.773Z,100351.09
2022-10-23T12:55:26.534Z,100365.06
2022-10-23T12:57:53.804Z,100346.94
2022-10-23T13:00:23.580Z,100352.41
2022-10-23T13:03:02.651Z,100343.09
2022-10-23T13:05:33.198Z,100332.81
2022-10-23T13:08:01.763Z,100333.41
2022-10-23T13:10:31.125Z,100332.25
2022-10-23T13:13:04.573Z,100325.75
2022-10-23T13:15:40.504Z,100331.50
2022-10-23T13:18:08.954Z,100338.72
2022-10-23T13:20:41.302Z,100324.63
2022-10-23T13:23:08.125Z,100320.59
2022-10-23T13:25:40.079Z,100316.19
2022-10-23T13:28:10.041Z,100285.91
2022-10-23T13:30:43.313Z,100291.00
2022-10-23T13:33:27.404Z,100273.63
2022-10-23T13:36:24.628Z,100276.97
2022-10-23T13:39:13.367Z,100270.53
2022-10-23T13:41:46.831Z,100269.28
2022-10-23T13:44:16.380Z,100278.53
2022-10-23T13:46:44.150Z,100268.34
2022-10-23T13:49:13.585Z,100258.88
2022-10-23T13:51:55.402Z,100252.31
2022-10-23T13:54:25.341Z,100261.41
2022-10-23T13:56:54.567Z,100249.13
2022-10-23T13:59:22.372Z,100238.97
2022-10-23T14:01:50.850Z,100235.75
2022-10-23T14:04:20.657Z,100243.22
2022-10-23T14:06:49.438Z,100241.84
2022-10-23T14:09:18.084Z,100241.56
2022-10-23T14:11:47.179Z,100244.31
2022-10-23T14:14:14.029Z,100244.97
2022-10-23T14:16:41.427Z,100245.22
2022-10-23T14:19:12.739Z,100230.59
2022-10-23T14:21:42.993Z,100237.22
2022-10-23T14:24:10.554Z,100232.63
2022-10-23T14:26:38.237Z,100230.78
2022-10-23T14:29:09.748Z,100230.25
2022-10-23T14:31:37.340Z,100222.50
2022-10-23T14:34:03.999Z,100211.19
2022-10-23T14:36:38.829Z,100222.69
2022-10-23T14:39:16.839Z,100202.72
2022-10-23T14:41:43.795Z,100207.16
2022-10-23T14:44:10.528Z,100200.28
2022-10-23T14:46:38.639Z,100200.72
2022-10-23T14:49:05.913Z,100189.47
2022-10-23T14:51:33.033Z,100192.97
2022-10-23T14:54:02.116Z,100192.34
2022-10-23T14:56:30.224Z,100199.47
2022-10-23T14:59:03.005Z,100215.13
2022-10-23T15:01:36.371Z,100224.03
2022-10-23T15:04:03.678Z,100221.22
2022-10-23T15:06:30.377Z,100242.41
2022-10-23T15:08:57.962Z,100250.91
2022-10-23T15:11:26.071Z,100267.16
2022-10-23T15:13:54.773Z,100229.84
2022-10-23T15:16:23.055Z,100208.19
2022-10-23T15:18:50.420Z,100220.69
2022-10-23T15:21:17.345Z,100215.53
2022-10-23T15:23:46.148Z,100234.53
2022-10-23T15:26:23.828Z,100282.69
2022-10-23T15:28:55.665Z,100278.88
2022-10-23T15:31:43.615Z,100279.34
2022-10-23T15:34:22.913Z,100282.81
2022-10-23T15:37:14.174Z,100270.28
2022-10-23T15:39:48.686Z,100259.78
2022-10-23T15:42:16.084Z,100258.97
2022-10-23T15:47:52.991Z,100261.28
2022-10-23T15:50:21.254Z,100267.09
2022-10-23T15:52:53.128Z,100263.03
2022-10-23T15:55:24.511Z,100256.91
2022-10-23T15:58:05.054Z,100277.38
2022-10-23T16:03:07.233Z,100301.38
2022-10-23T16:05:34.229Z,100299.97
2022-10-23T16:08:04.457Z,100294.91
2022-10-23T16:10:34.326Z,100279.28
2022-10-23T16:13:01.356Z,100286.78
2022-10-23T16:15:33.784Z,100297.09
2022-10-23T16:18:00.549Z,100283.91
2022-10-23T16:20:27.186Z,100279.41
2022-10-23T16:22:53.641Z,100274.91
2022-10-23T16:25:20.209Z,100268.31
2022-10-23T16:27:47.527Z,100256.31
2022-10-23T16:30:14.684Z,100264.59
2022-10-23T16:32:41.398Z,100271.44
2022-10-23T16:35:11.014Z,100272.59
2022-10-23T16:37:39.493Z,100259.66
2022-10-23T16:40:06.517Z,100283.44
2022-10-23T16:42:33.333Z,100301.94
2022-10-23T16:44:59.714Z,100301.34
2022-10-23T16:47:26.194Z,100310.97
2022-10-23T16:49:52.598Z,100344.25
2022-10-23T16:52:19.008Z,100342.63
2022-10-23T16:54:45.397Z,100330.03
2022-10-23T16:57:11.818Z,100316.50
2022-10-23T16:59:38.370Z,100295.47
2022-10-23T17:02:04.957Z,100223.13
2022-10-23T17:04:31.564Z,100221.75
2022-10-23T17:06:58.034Z,100219.59
2022-10-23T17:09:26.449Z,100205.03
2022-10-23T17:11:54.095Z,100202.25
2022-10-23T17:14:21.228Z,100192.19
2022-10-23T17:16:52.451Z,100217.72
2022-10-23T17:19:40.190Z,100229.16
2022-10-23T17:22:10.650Z,100229.50
2022-10-23T17:24:41.750Z,100235.84
2022-10-23T17:27:09.011Z,100243.81
2022-10-23T17:29:35.932Z,100217.63
2022-10-23T17:32:02.650Z,100218.53
2022-10-23T17:34:29.080Z,100195.44
2022-10-23T17:36:55.641Z,100190.03
2022-10-23T17:39:25.498Z,100201.09
2022-10-23T17:41:52.668Z,100217.25
2022-10-23T17:44:19.575Z,100237.59
2022-10-23T17:46:46.172Z,100236.53
2022-10-23T17:49:12.975Z,100242.34
2022-10-23T17:51:39.861Z,100254.34
2022-10-23T17:54:09.058Z,100254.34
2022-10-23T17:56:38.336Z,100246.72
2022-10-23T17:59:08.279Z,100243.38
2022-10-23T18:01:35.530Z,100247.63
2022-10-23T18:04:04.968Z,100243.50
2022-10-23T18:06:35.078Z,100234.81
2022-10-23T18:09:02.748Z,100235.97
2022-10-23T18:11:32.756Z,100232.28
2022-10-23T18:16:32.079Z,100213.22
2022-10-23T18:19:02.097Z,100209.06
2022-10-23T18:21:28.903Z,100210.09
2022-10-23T18:23:57.987Z,100206.16
2022-10-23T18:26:27.150Z,100208.72
2022-10-23T18:28:57.101Z,100209.97
2022-10-23T18:31:25.469Z,100197.19
2022-10-23T18:34:01.365Z,100185.50
2022-10-23T18:36:32.242Z,100198.66
2022-10-23T18:39:01.792Z,100196.94
2022-10-23T18:41:32.757Z,100208.81
2022-10-23T18:43:59.185Z,100209.66
2022-10-23T18:46:25.619Z,100208.94
2022-10-23T18:48:52.078Z,100208.16
2022-10-23T18:51:27.845Z,100202.38
2022-10-23T18:53:54.893Z,100189.78
2022-10-23T18:56:24.340Z,100199.81
2022-10-23T18:58:52.342Z,100204.91
2022-10-23T19:01:20.043Z,100199.50
2022-10-23T19:03:46.859Z,100197.66
2022-10-23T19:06:14.032Z,100190.25
2022-10-23T19:08:42.999Z,100188.63
2022-10-23T19:11:11.050Z,100190.25
2022-10-23T19:13:39.231Z,100188.63
2022-10-23T19:16:12.483Z,100180.41
2022-10-23T19:18:42.372Z,100183.31
2022-10-23T19:21:09.279Z,100188.38
2022-10-23T19:23:37.051Z,100178.13
2022-10-23T19:26:08.966Z,100181.91
2022-10-23T19:28:46.072Z,100179.38
2022-10-23T19:31:13.064Z,100175.34
2022-10-23T19:33:39.556Z,100187.94
2022-10-23T19:36:11.127Z,100188.41
2022-10-23T19:38:41.440Z,100184.13
2022-10-23T19:41:08.532Z,100190.47
2022-10-23T19:43:35.218Z,100183.53
2022-10-23T19:46:05.084Z,100192.66
2022-10-23T19:48:34.284Z,100195.44
2022-10-23T19:51:00.688Z,100198.91
2022-10-23T19:53:27.099Z,100196.25
2022-10-23T19:56:02.610Z,100200.75
2022-10-23T19:58:29.047Z,100184.59
2022-10-23T20:00:55.428Z,100182.84
2022-10-23T20:03:21.885Z,100181.56
2022-10-23T20:05:48.301Z,100183.91
2022-10-23T20:08:14.713Z,100183.44
2022-10-23T20:10:46.548Z,100176.72
2022-10-23T20:13:19.924Z,100186.78
2022-10-23T20:15:47.034Z,100191.63
2022-10-23T20:18:13.385Z,100202.00
2022-10-23T20:20:41.362Z,100211.00
2022-10-23T20:23:07.994Z,100230.84
2022-10-23T20:25:34.452Z,100244.72
2022-10-23T20:28:00.893Z,100260.41
2022-10-23T20:30:27.348Z,100275.66
2022-10-23T20:32:53.823Z,100283.41
2022-10-23T20:35:20.228Z,100286.72
2022-10-23T20:37:46.943Z,100311.19
2022-10-23T20:40:13.606Z,100315.59
2022-10-23T20:42:40.043Z,100350.97
2022-10-23T20:45:06.964Z,100349.81
2022-10-23T20:47:33.408Z,100334.66
2022-10-23T20:49:59.879Z,100320.59
2022-10-23T20:52:29.392Z,100296.91
2022-10-23T20:54:55.802Z,100285.03
2022-10-23T20:57:22.237Z,100290.78
2022-10-23T20:59:48.598Z,100295.16
2022-10-23T21:02:15.047Z,100285.13
2022-10-23T21:04:41.580Z,100270.53
2022-10-23T21:07:10.789Z,100278.25
2022-10-23T21:09:38.597Z,100270.88
2022-10-23T21:12:06.585Z,100275.00
2022-10-23T21:14:33.553Z,100277.44
2022-10-23T21:17:00.022Z,100275.44
2022-10-23T21:19:26.455Z,100277.91
2022-10-23T21:21:54.475Z,100281.66
2022-10-23T21:24:21.336Z,100273.47
2022-10-23T21:26:47.955Z,100274.38
2022-10-23T21:29:19.508Z,100272.78
2022-10-23T21:32:01.639Z,100277.41
2022-10-23T21:34:29.080Z,100277.28
2022-10-23T21:39:43.085Z,100286.16
2022-10-23T21:42:10.174Z,100283.84
2022-10-23T21:44:36.881Z,100277.50
2022-10-23T21:47:03.613Z,100284.66
2022-10-23T21:49:30.172Z,100274.47
2022-10-23T21:51:56.565Z,100273.47
2022-10-23T21:54:22.968Z,100287.97
2022-10-23T21:56:51.769Z,100291.81
2022-10-23T21:59:20.732Z,100274.75
2022-10-23T22:01:50.261Z,100288.56
2022-10-23T22:04:18.675Z,100286.72
2022-10-23T22:06:47.187Z,100291.81
2022-10-23T22:09:16.296Z,100290.53
2022-10-23T22:11:43.193Z,100283.84
2022-10-23T22:14:09.577Z,100282.53
2022-10-23T22:16:36.318Z,100272.41
2022-10-23T22:19:02.935Z,100280.47
2022-10-23T22:21:30.473Z,100269.63
2022-10-23T22:23:58.733Z,100284.31
2022-10-23T22:26:35.785Z,100275.28
2022-10-23T22:29:06.446Z,100271.53
2022-10-23T22:31:34.166Z,100270.81
2022-10-23T22:34:13.129Z,100276.53
2022-10-23T22:36:48.730Z,100269.84
2022-10-23T22:39:15.262Z,100276.94
2022-10-23T22:41:43.253Z,100262.84
2022-10-23T22:44:11.716Z,100263.88
2022-10-23T22:46:38.537Z,100263.97
2022-10-23T22:51:32.304Z,100264.59
2022-10-23T22:53:59.576Z,100266.66
2022-10-23T22:56:29.233Z,100268.97
2022-10-23T22:58:57.030Z,100268.50
2022-10-23T23:01:33.456Z,100257.31
2022-10-23T23:04:08.879Z,100268.63
2022-10-23T23:06:47.434Z,100267.81
2022-10-23T23:09:17.936Z,100263.34
2022-10-23T23:11:51.561Z,100260.19
2022-10-23T23:14:23.043Z,100254.31
2022-10-23T23:16:51.521Z,100259.63
2022-10-23T23:19:17.914Z,100264.50
2022-10-23T23:21:44.287Z,100262.28
2022-10-23T23:24:11.840Z,100264.25
2022-10-23T23:26:38.223Z,100266.13
2022-10-23T23:29:04.755Z,100266.81
2022-10-23T23:31:31.462Z,100269.13
2022-10-23T23:33:57.906Z,100257.34
2022-10-23T23:36:26.470Z,100260.72
2022-10-23T23:38:53.430Z,100270.97
2022-10-23T23:41:21.205Z,100264.97
2022-10-23T23:43:47.757Z,100272.69
2022-10-23T23:46:14.914Z,100259.75
2022-10-23T23:48:47.082Z,100262.50
2022-10-23T23:51:18.514Z,100254.78
2022-10-23T23:53:44.904Z,100254.78
2022-10-23T23:56:11.308Z,100256.66
2022-10-23T23:58:37.896Z,100246.94
